Groton, Connecticut
Current Conditions -  °F | °C
As of 11:56 AM on Friday 31 Oct 2014 (Local Time) from KGON Reporting Station
Overcast Overcast  
Wind Chill: 52°   Ceiling: 4200
Heat Index: 52°   Visibility: 10mi
Dew Point: 43°   Wind: 9mph
Humidity: 71%   Direction: 40°NE
Pressure: 29.98"   Gusts: NA
Location:  41.35°N, 72.07°W
Report Text: KGON 311556Z 04008KT 10SM OVC042 11/06 A2998 RMK AO2 SLP150 T01110061
Loading
Personal Weather Stations






























Interactive Weather Map
Tropical Storm Tracking
New forecast layout! Learn more

10-Day Weather Forecast

Advertisements
Track Severe Weather on mobile